Etihad Airways Virtual Airport Information Service

Jeddah King Abdulaziz International Airport

ICAO: OEJN Country: Saudi Arabia
Latitude: 21.6796 Longitude: 39.1565
Latest Arrival : SVA1811 (OEAH-OEJN) Latest Departure : ETDJUMP (OEJN-OPIS)


WX CaptureLIVE
Data provided by noaa.gov | Recorded at 09:10:58

METAR : OEJN 150800Z 31007KT 9999 SCT040 30/19 Q1010 NOSIG

TAF : OEJN 150500Z 1506/1612 30012KT CAVOK BECMG 1518/1520 06007KT 9999 FEW030 BECMG 1606/1608 29015KT


Runway Data for OEJN
Data provided by openaviationdata.com

Runway ID Mag Var Hdg Length Elevation Surface ILS Freq ILS Id ILS Slope

Jeddah King Abdulaziz International Airport, Saudi Arabia
Use only for reference purposes